Time;durP1;ratioP1;P1;durP2;ratioP2;P2;SDS_P1;SDS_P2;PMS_P1;PMS_P2;Temp;Humidity;BMP_temperature;BMP_pressure;BME280_temperature;BME280_humidity;BME280_pressure;Samples;Min_cycle;Max_cycle;Signal;HPM_P1;HPM_P2
2023/08/09 00:00:01;;;;;;;9.40;2.60;;;14.20;30.00;;;;;;5034284;28;46426;-67
2023/08/09 00:02:27;;;;;;;8.63;2.67;;;14.20;29.90;;;;;;5030356;28;46758;-67
2023/08/09 00:04:52;;;;;;;12.03;2.30;;;14.20;30.00;;;;;;5038128;28;46300;-66
2023/08/09 00:07:18;;;;;;;4.70;2.73;;;14.20;30.30;;;;;;5038253;28;46766;-67
2023/08/09 00:09:44;;;;;;;4.10;2.43;;;14.20;30.20;;;;;;5037303;28;46561;-66
2023/08/09 00:12:09;;;;;;;5.43;2.50;;;14.20;30.10;;;;;;5033313;28;46519;-67
2023/08/09 00:14:35;;;;;;;3.90;2.10;;;14.30;30.00;;;;;;5033913;28;46587;-66
2023/08/09 00:17:00;;;;;;;7.00;2.50;;;14.30;30.10;;;;;;5033016;28;46517;-66
2023/08/09 00:19:26;;;;;;;5.70;2.63;;;14.30;30.10;;;;;;5037759;28;46627;-67
2023/08/09 00:21:51;;;;;;;4.60;2.37;;;14.30;30.10;;;;;;5037845;28;46426;-66
2023/08/09 00:24:17;;;;;;;4.53;2.33;;;14.40;30.30;;;;;;5030615;28;46478;-67
2023/08/09 00:26:43;;;;;;;4.60;2.40;;;14.40;30.30;;;;;;5036008;28;46384;-67
2023/08/09 00:29:09;;;;;;;5.63;2.30;;;14.30;30.30;;;;;;5038872;28;46722;-66
2023/08/09 00:31:34;;;;;;;9.83;3.17;;;14.40;30.50;;;;;;5035583;28;46588;-67
2023/08/09 00:34:00;;;;;;;4.47;2.00;;;14.40;30.50;;;;;;5037657;28;46658;-67
2023/08/09 00:36:27;;;;;;;5.10;2.50;;;14.40;30.50;;;;;;5032197;28;46764;-67
2023/08/09 00:38:53;;;;;;;4.00;1.97;;;14.40;30.60;;;;;;5035524;28;45907;-67
2023/08/09 00:41:19;;;;;;;3.60;2.00;;;14.40;30.60;;;;;;5035912;28;46525;-66
2023/08/09 00:43:44;;;;;;;4.43;2.33;;;14.40;30.70;;;;;;5039607;28;46686;-67
2023/08/09 00:46:11;;;;;;;6.70;2.57;;;14.40;30.60;;;;;;5030537;28;46519;-66
2023/08/09 00:48:36;;;;;;;7.03;2.63;;;14.50;30.50;;;;;;5038769;28;46340;-65
2023/08/09 00:51:02;;;;;;;8.47;2.50;;;14.50;30.50;;;;;;5033936;28;47200;-65
2023/08/09 00:53:28;;;;;;;6.43;2.20;;;14.60;30.50;;;;;;5035662;28;46467;-65
2023/08/09 00:55:54;;;;;;;6.23;2.33;;;14.60;30.50;;;;;;5033791;28;46487;-65
2023/08/09 00:58:20;;;;;;;3.73;2.20;;;14.70;30.40;;;;;;5035394;28;46788;-67
2023/08/09 01:00:45;;;;;;;5.87;2.23;;;14.70;31.60;;;;;;5030294;28;46883;-66
2023/08/09 01:03:11;;;;;;;4.33;2.20;;;14.70;30.20;;;;;;5040107;28;46454;-66
2023/08/09 01:05:58;;;;;;;3.60;2.03;;;14.80;30.20;;;;;;5033133;28;46444;-67
2023/08/09 01:08:47;;;;;;;6.30;2.30;;;14.90;30.00;;;;;;5034428;28;46353;-66
2023/08/09 01:11:48;;;;;;;5.13;2.20;;;14.90;29.80;;;;;;5023781;28;48341;-66
2023/08/09 01:14:15;;;;;;;3.87;2.17;;;14.90;29.60;;;;;;5033705;28;46558;-66
2023/08/09 01:16:44;;;;;;;4.10;1.90;;;15.00;29.60;;;;;;5036229;28;46425;-67
2023/08/09 01:19:35;;;;;;;4.83;2.07;;;15.10;29.70;;;;;;5037271;28;46100;-66
2023/08/09 01:22:20;;;;;;;3.60;2.10;;;15.10;29.70;;;;;;5032794;28;47062;-65
2023/08/09 01:24:46;;;;;;;4.20;1.90;;;15.10;29.70;;;;;;5031960;28;46526;-66
2023/08/09 01:27:12;;;;;;;4.93;2.20;;;15.10;29.70;;;;;;5040696;28;46460;-65
2023/08/09 01:29:39;;;;;;;4.83;2.30;;;15.10;29.70;;;;;;5033378;28;46927;-66
2023/08/09 01:32:05;;;;;;;5.80;2.17;;;15.10;29.70;;;;;;5034456;28;46648;-67
2023/08/09 01:34:32;;;;;;;4.33;2.10;;;15.10;29.70;;;;;;5036945;28;46672;-66
2023/08/09 01:37:25;;;;;;;3.40;2.07;;;15.10;29.80;;;;;;5034023;28;45774;-66
2023/08/09 01:39:54;;;;;;;6.20;2.30;;;15.00;30.10;;;;;;5038295;28;46557;-66
2023/08/09 01:42:20;;;;;;;3.97;2.00;;;15.10;30.00;;;;;;5036357;28;46686;-67
2023/08/09 01:44:46;;;;;;;4.60;2.50;;;15.00;30.40;;;;;;5034214;28;46528;-66
2023/08/09 01:47:13;;;;;;;5.33;1.93;;;15.00;30.50;;;;;;5032480;28;46417;-66
2023/08/09 01:49:45;;;;;;;5.60;2.20;;;15.00;30.60;;;;;;5032140;28;46571;-67
2023/08/09 01:52:11;;;;;;;4.27;2.13;;;15.10;30.80;;;;;;5034301;28;47280;-66
2023/08/09 01:54:37;;;;;;;3.10;1.80;;;15.00;30.80;;;;;;5034822;28;46424;-66
2023/08/09 01:57:03;;;;;;;4.80;1.97;;;15.10;31.50;;;;;;5034819;28;46513;-67
2023/08/09 01:59:28;;;;;;;6.43;2.57;;;15.10;30.90;;;;;;5036732;28;46739;-67
2023/08/09 02:01:54;;;;;;;6.07;1.90;;;15.10;31.00;;;;;;5039317;28;46477;-64
2023/08/09 02:04:20;;;;;;;5.50;2.60;;;15.10;30.90;;;;;;5034550;28;46459;-66
2023/08/09 02:06:46;;;;;;;5.30;1.80;;;15.10;31.10;;;;;;5030043;28;46751;-66
2023/08/09 02:09:11;;;;;;;5.80;2.40;;;15.10;31.30;;;;;;5041968;28;46450;-65
2023/08/09 02:11:37;;;;;;;4.63;2.10;;;15.00;31.40;;;;;;5032665;28;47725;-67
2023/08/09 02:14:03;;;;;;;4.63;2.30;;;15.10;31.60;;;;;;5034771;28;46434;-66
2023/08/09 02:16:29;;;;;;;4.20;2.23;;;15.00;31.60;;;;;;5038334;28;46469;-66
2023/08/09 02:18:55;;;;;;;4.03;2.10;;;15.00;31.60;;;;;;5042428;28;46420;-66
2023/08/09 02:21:21;;;;;;;5.47;2.47;;;15.00;31.50;;;;;;5043755;28;46420;-66
2023/08/09 02:23:47;;;;;;;5.10;2.50;;;15.10;31.60;;;;;;5039855;28;46487;-67
2023/08/09 02:26:14;;;;;;;3.97;2.00;;;15.10;31.60;;;;;;5037215;28;45833;-66
2023/08/09 02:28:39;;;;;;;4.67;2.27;;;15.10;31.60;;;;;;5040446;28;46461;-66
2023/08/09 02:31:08;;;;;;;4.90;2.47;;;15.20;31.60;;;;;;5040948;28;47160;-66
2023/08/09 02:33:34;;;;;;;9.97;1.87;;;15.20;31.50;;;;;;5042480;28;46471;-66
2023/08/09 02:36:02;;;;;;;9.17;2.33;;;15.20;32.60;;;;;;5043408;28;46413;-66
2023/08/09 02:38:28;;;;;;;4.27;1.87;;;15.20;31.20;;;;;;5048041;28;46452;-66
2023/08/09 02:40:55;;;;;;;4.60;2.50;;;15.30;31.40;;;;;;5030988;28;46311;-67
2023/08/09 02:43:23;;;;;;;4.90;2.30;;;15.20;31.30;;;;;;5045106;28;46556;-67
2023/08/09 02:45:50;;;;;;;5.13;2.37;;;15.20;31.50;;;;;;5038520;28;45888;-67
2023/08/09 02:48:16;;;;;;;3.60;2.00;;;15.20;31.50;;;;;;5046475;28;46715;-66
2023/08/09 02:50:42;;;;;;;4.97;2.27;;;15.20;31.60;;;;;;5036642;28;47009;-67
2023/08/09 02:53:08;;;;;;;6.73;2.30;;;15.20;31.60;;;;;;5041834;28;47226;-67
2023/08/09 02:55:35;;;;;;;6.10;2.00;;;15.20;31.80;;;;;;5042343;28;46534;-66
2023/08/09 02:58:03;;;;;;;9.20;1.90;;;15.20;33.10;;;;;;5041688;28;46444;-69
2023/08/09 03:00:29;;;;;;;5.43;1.90;;;15.20;31.90;;;;;;5037963;28;48115;-69
2023/08/09 03:02:55;;;;;;;3.83;1.90;;;15.20;32.00;;;;;;5037099;28;46476;-70
2023/08/09 03:05:20;;;;;;;4.10;1.93;;;15.20;32.10;;;;;;5038152;28;46380;-67
2023/08/09 03:07:46;;;;;;;3.20;2.00;;;15.20;31.90;;;;;;5035703;28;46680;-68
2023/08/09 03:10:12;;;;;;;5.20;2.20;;;15.20;32.00;;;;;;5037405;28;46389;-67
2023/08/09 03:12:37;;;;;;;3.23;1.60;;;15.10;32.20;;;;;;5035434;28;46366;-67
2023/08/09 03:15:04;;;;;;;5.10;2.50;;;15.10;32.40;;;;;;5036043;28;46408;-67
2023/08/09 03:17:30;;;;;;;4.30;2.20;;;15.10;32.30;;;;;;5040926;28;46513;-65
2023/08/09 03:19:56;;;;;;;6.13;2.20;;;15.10;32.40;;;;;;5044435;28;46990;-65
2023/08/09 03:22:23;;;;;;;7.37;2.17;;;15.10;32.70;;;;;;5042098;28;46713;-64
2023/08/09 03:24:49;;;;;;;4.73;2.10;;;15.00;34.00;;;;;;5042715;28;45794;-65
2023/08/09 03:27:15;;;;;;;4.30;1.90;;;15.10;32.90;;;;;;5043785;28;46447;-66
2023/08/09 03:29:40;;;;;;;3.80;2.20;;;15.10;32.90;;;;;;5043009;28;46509;-66
2023/08/09 03:32:06;;;;;;;4.73;2.23;;;15.10;32.90;;;;;;5038889;28;46479;-66
2023/08/09 03:34:32;;;;;;;5.70;2.17;;;15.10;32.90;;;;;;5037339;28;45966;-66
2023/08/09 03:36:57;;;;;;;6.33;2.50;;;15.10;33.00;;;;;;5038548;28;46741;-67
2023/08/09 03:39:23;;;;;;;4.10;1.93;;;15.10;32.80;;;;;;5036522;28;47096;-67
2023/08/09 03:41:49;;;;;;;4.80;2.00;;;15.20;32.80;;;;;;5039228;28;46402;-67
2023/08/09 03:44:15;;;;;;;5.90;2.47;;;15.20;32.70;;;;;;5037799;28;46827;-67
2023/08/09 03:46:41;;;;;;;3.80;2.00;;;15.20;32.90;;;;;;5034210;28;46794;-66
2023/08/09 03:49:07;;;;;;;3.40;1.97;;;15.20;32.80;;;;;;5040799;28;47041;-67
2023/08/09 03:51:33;;;;;;;6.70;2.23;;;15.20;32.70;;;;;;5036088;28;46502;-67
2023/08/09 03:53:59;;;;;;;4.80;2.00;;;15.30;32.70;;;;;;5037634;28;46482;-67
2023/08/09 03:56:26;;;;;;;11.10;2.33;;;15.30;32.70;;;;;;5040426;28;46389;-66
2023/08/09 03:58:51;;;;;;;3.70;2.10;;;15.30;32.80;;;;;;5036252;28;46433;-67
2023/08/09 04:01:17;;;;;;;9.07;2.57;;;15.30;32.70;;;;;;5039082;28;46472;-67
2023/08/09 04:03:43;;;;;;;5.00;2.10;;;15.30;32.80;;;;;;5037470;28;46742;-66
2023/08/09 04:06:09;;;;;;;7.00;2.80;;;15.30;32.90;;;;;;5039798;28;46505;-67
2023/08/09 04:08:35;;;;;;;5.00;2.30;;;15.30;33.00;;;;;;5037532;28;47011;-66
2023/08/09 04:11:00;;;;;;;3.93;1.80;;;15.30;33.20;;;;;;5039942;28;46475;-66
2023/08/09 04:13:26;;;;;;;3.97;2.27;;;15.30;33.20;;;;;;5040227;28;46516;-66
2023/08/09 04:15:52;;;;;;;3.80;1.83;;;15.30;33.20;;;;;;5038050;28;46622;-66
2023/08/09 04:18:18;;;;;;;5.17;2.10;;;15.30;33.00;;;;;;5033983;28;47390;-67
2023/08/09 04:20:45;;;;;;;3.87;2.20;;;15.40;33.10;;;;;;5034798;28;46525;-66
2023/08/09 04:23:11;;;;;;;6.80;2.13;;;15.30;33.10;;;;;;5036873;28;46493;-66
2023/08/09 04:25:36;;;;;;;5.47;2.30;;;15.40;33.20;;;;;;5033405;28;46540;-67
2023/08/09 04:28:02;;;;;;;5.33;1.90;;;15.40;33.10;;;;;;5035928;28;46488;-66
2023/08/09 04:30:28;;;;;;;4.90;2.33;;;15.40;33.10;;;;;;5037589;28;46294;-66
2023/08/09 04:32:54;;;;;;;6.13;2.50;;;15.40;33.20;;;;;;5034101;28;46457;-66
2023/08/09 04:35:19;;;;;;;5.43;1.80;;;15.50;33.20;;;;;;5035856;28;46712;-66
2023/08/09 04:37:45;;;;;;;4.37;2.17;;;15.50;33.00;;;;;;5039778;28;46548;-66
2023/08/09 04:40:12;;;;;;;4.77;2.00;;;15.60;32.90;;;;;;5039934;28;46788;-66
2023/08/09 04:42:41;;;;;;;5.00;2.70;;;15.60;32.90;;;;;;5035823;28;46503;-65
2023/08/09 04:45:09;;;;;;;2.73;1.73;;;15.50;32.90;;;;;;5032633;28;45938;-66
2023/08/09 04:47:35;;;;;;;3.93;1.80;;;15.50;33.20;;;;;;5036888;28;46418;-66
2023/08/09 04:50:05;;;;;;;5.00;1.90;;;15.60;33.30;;;;;;5035147;28;46508;-66
2023/08/09 04:52:33;;;;;;;4.93;1.80;;;15.60;33.30;;;;;;5036454;28;46485;-66
2023/08/09 04:54:58;;;;;;;4.87;2.53;;;15.60;33.20;;;;;;5036277;28;46605;-66
2023/08/09 04:57:24;;;;;;;3.23;1.93;;;15.60;33.30;;;;;;5035623;28;47139;-66
2023/08/09 04:59:50;;;;;;;4.73;2.17;;;15.60;33.30;;;;;;5031602;28;46510;-66
2023/08/09 05:02:15;;;;;;;5.00;1.63;;;15.60;33.50;;;;;;5035321;28;46792;-66
2023/08/09 05:04:41;;;;;;;4.33;2.00;;;15.70;33.70;;;;;;5042323;28;46519;-67
2023/08/09 05:07:06;;;;;;;5.43;1.80;;;15.70;33.60;;;;;;5032452;28;46540;-67
2023/08/09 05:09:32;;;;;;;5.27;2.33;;;15.70;34.00;;;;;;5032869;28;46400;-67
2023/08/09 05:11:58;;;;;;;4.17;2.03;;;15.60;34.20;;;;;;5034010;28;46465;-66
2023/08/09 05:14:25;;;;;;;5.03;2.10;;;15.60;35.50;;;;;;5037281;28;45846;-66
2023/08/09 05:16:51;;;;;;;5.00;2.20;;;15.60;34.60;;;;;;5037883;28;47024;-66
2023/08/09 05:19:17;;;;;;;5.53;2.37;;;15.60;34.70;;;;;;5030639;28;46439;-66
2023/08/09 05:21:43;;;;;;;7.57;2.53;;;15.70;34.90;;;;;;5033609;28;46404;-66
2023/08/09 05:24:09;;;;;;;4.37;2.10;;;15.70;35.00;;;;;;5033709;28;46509;-67
2023/08/09 05:26:34;;;;;;;3.90;2.17;;;15.70;35.00;;;;;;5035775;28;46480;-67
2023/08/09 05:29:00;;;;;;;4.00;2.20;;;15.80;35.10;;;;;;5036413;28;46529;-66
2023/08/09 05:31:25;;;;;;;4.43;2.00;;;15.80;35.00;;;;;;5043416;28;46485;-67
2023/08/09 05:33:51;;;;;;;5.30;2.17;;;15.80;35.00;;;;;;5041018;28;46651;-67
2023/08/09 05:36:16;;;;;;;3.87;2.07;;;15.80;35.10;;;;;;5036153;28;46617;-66
2023/08/09 05:38:42;;;;;;;7.07;2.53;;;15.80;35.60;;;;;;5037222;28;46404;-67
2023/08/09 05:41:08;;;;;;;3.13;1.70;;;15.80;35.60;;;;;;5044531;28;46508;-67
2023/08/09 05:43:33;;;;;;;4.70;2.20;;;15.90;35.70;;;;;;5040111;28;46662;-66
2023/08/09 05:46:00;;;;;;;5.20;2.23;;;15.90;35.60;;;;;;5038738;28;46791;-67
2023/08/09 05:48:25;;;;;;;5.77;1.90;;;16.00;35.70;;;;;;5043184;28;46491;-66
2023/08/09 05:50:51;;;;;;;5.60;2.37;;;16.00;35.60;;;;;;5043095;28;46438;-67
2023/08/09 05:53:16;;;;;;;5.23;2.27;;;16.10;35.60;;;;;;5043720;28;46655;-67
2023/08/09 05:55:42;;;;;;;5.17;2.10;;;16.10;35.50;;;;;;5044143;28;46442;-66
2023/08/09 05:58:08;;;;;;;10.90;2.30;;;16.10;35.70;;;;;;5034132;28;46560;-66
2023/08/09 06:00:34;;;;;;;7.53;2.17;;;16.10;36.00;;;;;;5036730;28;46750;-69
2023/08/09 06:03:00;;;;;;;5.50;1.90;;;16.10;36.20;;;;;;5039466;28;46492;-68
2023/08/09 06:05:26;;;;;;;10.97;2.40;;;16.00;36.60;;;;;;5039446;28;46846;-69
2023/08/09 06:07:52;;;;;;;6.33;2.00;;;16.00;36.70;;;;;;5039651;28;45907;-68
2023/08/09 06:10:23;;;;;;;4.47;2.07;;;16.00;36.70;;;;;;5047065;22;46430;-69
2023/08/09 06:12:49;;;;;;;5.73;3.70;;;16.10;36.60;;;;;;5011573;28;46548;-69
2023/08/09 06:15:16;;;;;;;5.37;2.50;;;16.10;36.40;;;;;;5013777;28;47986;-68
2023/08/09 06:17:50;;;;;;;8.20;4.03;;;16.20;36.30;;;;;;5010955;28;46414;-68
2023/08/09 06:20:17;;;;;;;6.07;3.13;;;16.30;36.30;;;;;;5026265;28;46415;-69
2023/08/09 06:22:43;;;;;;;5.07;2.07;;;16.40;36.20;;;;;;5009531;28;46434;-69
2023/08/09 06:25:10;;;;;;;5.20;2.40;;;16.50;35.80;;;;;;5005720;28;46158;-67
2023/08/09 06:27:36;;;;;;;5.40;3.03;;;16.60;35.60;;;;;;5010612;28;46446;-68
2023/08/09 06:30:03;;;;;;;4.40;2.00;;;16.70;35.50;;;;;;5007584;28;46459;-70
2023/08/09 06:32:28;;;;;;;7.13;2.80;;;16.70;35.30;;;;;;5009356;28;46557;-68
2023/08/09 06:34:54;;;;;;;5.50;2.00;;;16.80;35.20;;;;;;5003112;28;46799;-69
2023/08/09 06:37:20;;;;;;;5.67;2.53;;;16.80;35.10;;;;;;5006390;28;46507;-69
2023/08/09 06:39:45;;;;;;;5.17;3.00;;;16.80;35.00;;;;;;5004533;28;46899;-68
2023/08/09 06:42:12;;;;;;;6.67;3.17;;;16.80;35.00;;;;;;5010696;28;46783;-70
2023/08/09 06:44:38;;;;;;;5.63;3.30;;;16.90;34.70;;;;;;5008180;28;46786;-69
2023/08/09 06:47:04;;;;;;;8.87;4.97;;;17.00;34.40;;;;;;5007525;28;47156;-70
2023/08/09 06:49:30;;;;;;;4.33;3.10;;;17.10;34.20;;;;;;5004987;28;46408;-70
2023/08/09 06:51:58;;;;;;;5.10;2.37;;;17.20;34.00;;;;;;5021908;28;46824;-69
2023/08/09 06:54:24;;;;;;;8.77;1.80;;;17.20;33.80;;;;;;5006124;28;47295;-69
2023/08/09 06:56:50;;;;;;;39.90;20.73;;;17.20;34.00;;;;;;5010806;28;47588;-70
2023/08/09 06:59:15;;;;;;;5.87;3.03;;;17.10;34.20;;;;;;5008464;28;47534;-69
2023/08/09 07:01:43;;;;;;;4.90;2.20;;;17.00;34.50;;;;;;5004762;28;46594;-68
2023/08/09 07:04:09;;;;;;;34.90;18.93;;;16.90;34.80;;;;;;5001293;28;46431;-68
2023/08/09 07:06:34;;;;;;;7.60;3.00;;;16.90;34.80;;;;;;5005242;28;46598;-70
2023/08/09 07:09:00;;;;;;;5.40;2.30;;;16.90;34.80;;;;;;5006748;28;46380;-68
2023/08/09 07:11:26;;;;;;;4.70;1.83;;;16.90;34.70;;;;;;5009383;28;46702;-68
2023/08/09 07:13:51;;;;;;;4.47;2.20;;;16.90;34.70;;;;;;5005690;28;47181;-69
2023/08/09 07:16:17;;;;;;;8.43;2.53;;;16.90;34.80;;;;;;5007362;28;46442;-68
2023/08/09 07:18:43;;;;;;;21.90;11.33;;;16.80;35.00;;;;;;5009157;28;46491;-69
2023/08/09 07:21:08;;;;;;;10.93;3.63;;;16.80;35.20;;;;;;5005180;28;46458;-68
2023/08/09 07:23:34;;;;;;;5.57;2.53;;;16.70;35.50;;;;;;5004815;28;46388;-68
2023/08/09 07:26:00;;;;;;;5.53;2.40;;;16.60;35.90;;;;;;5003815;28;46467;-68
2023/08/09 07:28:25;;;;;;;5.60;2.40;;;16.50;36.20;;;;;;5003393;28;46621;-68
2023/08/09 07:30:51;;;;;;;7.00;2.60;;;16.50;36.50;;;;;;5003820;28;46509;-67
2023/08/09 07:33:17;;;;;;;5.07;3.00;;;16.60;37.80;;;;;;5002658;28;46474;-69
2023/08/09 07:35:43;;;;;;;6.23;2.83;;;16.70;36.50;;;;;;5004024;28;46478;-68
2023/08/09 07:38:08;;;;;;;4.67;2.67;;;16.80;36.30;;;;;;5005083;28;46563;-68
2023/08/09 07:40:34;;;;;;;3.70;1.93;;;16.80;36.30;;;;;;5009245;28;46498;-70
2023/08/09 07:43:01;;;;;;;5.93;2.80;;;16.90;36.20;;;;;;5004564;28;46481;-67
2023/08/09 07:45:28;;;;;;;5.30;2.73;;;17.00;36.20;;;;;;5005404;28;45839;-67
2023/08/09 07:47:54;;;;;;;4.03;2.33;;;17.10;36.20;;;;;;5005704;28;46395;-70
2023/08/09 07:50:20;;;;;;;5.37;2.43;;;17.10;36.10;;;;;;5002646;28;46387;-67
2023/08/09 07:52:47;;;;;;;4.80;2.37;;;17.20;36.20;;;;;;5004495;28;47179;-68
2023/08/09 07:55:13;;;;;;;5.67;2.33;;;17.20;36.30;;;;;;5005862;28;46705;-68
2023/08/09 07:57:38;;;;;;;8.40;2.30;;;17.20;36.60;;;;;;5005040;28;46504;-68
2023/08/09 08:00:07;;;;;;;4.80;2.40;;;17.20;36.90;;;;;;5003667;28;46422;-69
2023/08/09 08:02:33;;;;;;;4.23;2.50;;;17.10;37.20;;;;;;5008574;28;47082;-66
2023/08/09 08:04:59;;;;;;;4.30;2.33;;;17.10;37.60;;;;;;5010276;28;46339;-66
2023/08/09 08:07:25;;;;;;;3.83;2.03;;;17.00;38.00;;;;;;5010131;28;46661;-66
2023/08/09 08:09:51;;;;;;;4.40;2.93;;;17.00;39.20;;;;;;5011436;28;46702;-66
2023/08/09 08:12:18;;;;;;;3.90;2.27;;;17.10;38.20;;;;;;5009203;28;47744;-66
2023/08/09 08:14:44;;;;;;;9.80;3.00;;;17.20;37.90;;;;;;5011560;28;46493;-67
2023/08/09 08:17:09;;;;;;;6.60;2.90;;;17.20;38.10;;;;;;5013135;28;46387;-66
2023/08/09 08:19:35;;;;;;;21.63;12.33;;;17.20;38.30;;;;;;5018286;28;46457;-66
2023/08/09 08:22:01;;;;;;;8.70;3.57;;;17.10;38.60;;;;;;5010780;28;46038;-66
2023/08/09 08:24:26;;;;;;;6.30;2.57;;;17.10;39.00;;;;;;5009965;28;46622;-66
2023/08/09 08:26:54;;;;;;;6.00;2.07;;;17.00;39.00;;;;;;5003222;28;46759;-66
2023/08/09 08:29:22;;;;;;;4.60;2.20;;;17.00;39.20;;;;;;5010903;28;46038;-66
2023/08/09 08:31:47;;;;;;;4.50;1.93;;;17.00;39.10;;;;;;5013621;28;47163;-67
2023/08/09 08:34:13;;;;;;;8.80;2.50;;;17.00;39.30;;;;;;5015649;28;46488;-65
2023/08/09 08:36:39;;;;;;;3.83;2.17;;;17.00;39.20;;;;;;5013823;28;45893;-66
2023/08/09 08:39:11;;;;;;;7.00;2.53;;;17.00;39.00;;;;;;5011945;28;46680;-66
2023/08/09 08:41:37;;;;;;;3.23;1.70;;;17.10;38.80;;;;;;5010014;28;46486;-65
2023/08/09 08:44:05;;;;;;;7.17;2.23;;;17.20;38.80;;;;;;5009831;28;46780;-66
2023/08/09 08:46:32;;;;;;;5.20;2.40;;;17.20;38.40;;;;;;5010824;28;46482;-65
2023/08/09 08:49:03;;;;;;;4.97;2.53;;;17.30;38.30;;;;;;5018191;28;46557;-66
2023/08/09 08:51:29;;;;;;;3.87;2.00;;;17.40;38.00;;;;;;5005798;28;46218;-66
2023/08/09 08:53:55;;;;;;;4.80;2.43;;;17.50;37.60;;;;;;5008590;28;46651;-66
2023/08/09 08:56:21;;;;;;;7.80;2.37;;;17.60;37.40;;;;;;5012393;28;46510;-65
2023/08/09 08:58:48;;;;;;;4.60;2.20;;;17.70;37.20;;;;;;5012443;28;46413;-66
2023/08/09 09:01:15;;;;;;;6.20;2.20;;;17.70;37.10;;;;;;5007972;28;46447;-66
2023/08/09 09:03:40;;;;;;;4.37;2.17;;;17.80;37.10;;;;;;5004952;28;46463;-64
2023/08/09 09:06:06;;;;;;;5.17;2.47;;;17.80;37.00;;;;;;5012694;28;46532;-64
2023/08/09 09:08:43;;;;;;;5.27;2.17;;;17.80;37.10;;;;;;5006783;28;46471;-65
2023/08/09 09:11:16;;;;;;;5.83;2.27;;;17.80;37.20;;;;;;5005173;28;48355;-65
2023/08/09 09:13:42;;;;;;;5.17;2.30;;;17.90;37.30;;;;;;5010360;28;46490;-65
2023/08/09 09:16:07;;;;;;;13.47;2.53;;;18.00;37.10;;;;;;5008107;28;46747;-65
2023/08/09 09:18:41;;;;;;;5.10;2.30;;;18.20;36.30;;;;;;5011841;28;46435;-65
2023/08/09 09:21:09;;;;;;;5.30;2.17;;;18.30;36.10;;;;;;5010114;28;46504;-65
2023/08/09 09:23:36;;;;;;;7.53;1.97;;;18.50;35.80;;;;;;5011148;28;46412;-65
2023/08/09 09:26:11;;;;;;;4.13;2.07;;;18.60;35.20;;;;;;5012487;28;46346;-66
2023/08/09 09:28:42;;;;;;;4.70;2.30;;;18.60;35.10;;;;;;5014221;28;46482;-65
2023/08/09 09:31:10;;;;;;;5.40;2.23;;;18.60;35.20;;;;;;5005710;28;46491;-65
2023/08/09 09:33:36;;;;;;;6.40;2.20;;;18.60;35.30;;;;;;5012753;28;46907;-66
2023/08/09 09:36:03;;;;;;;3.77;2.10;;;18.50;35.90;;;;;;5008308;28;46426;-65
2023/08/09 09:38:29;;;;;;;4.60;2.30;;;18.30;36.40;;;;;;5003065;28;46676;-66
2023/08/09 09:40:57;;;;;;;5.70;2.20;;;18.10;36.90;;;;;;5007384;28;47124;-68
2023/08/09 09:43:26;;;;;;;7.30;3.10;;;18.00;37.40;;;;;;5004458;28;46507;-66
2023/08/09 09:45:54;;;;;;;4.47;1.97;;;17.90;37.70;;;;;;5004772;28;46440;-66
2023/08/09 09:48:20;;;;;;;4.20;2.10;;;17.90;37.60;;;;;;5007850;28;46491;-66
2023/08/09 09:50:48;;;;;;;5.90;2.33;;;17.90;38.70;;;;;;5008048;28;47183;-67
2023/08/09 09:53:17;;;;;;;8.97;2.87;;;17.80;37.90;;;;;;5003607;28;46583;-66
2023/08/09 09:55:43;;;;;;;5.67;2.07;;;17.60;38.30;;;;;;5007848;28;46471;-67
2023/08/09 09:58:09;;;;;;;4.70;2.40;;;17.40;38.70;;;;;;5004061;28;46500;-65
2023/08/09 10:00:36;;;;;;;5.97;2.60;;;17.40;39.10;;;;;;5007586;28;46479;-67
2023/08/09 10:03:06;;;;;;;5.07;2.47;;;17.60;38.70;;;;;;5003987;28;46399;-66
2023/08/09 10:05:39;;;;;;;7.90;2.70;;;17.90;37.80;;;;;;5007817;28;47084;-66
2023/08/09 10:08:08;;;;;;;5.33;2.60;;;18.20;36.80;;;;;;5003483;28;46639;-67
2023/08/09 10:10:36;;;;;;;4.30;2.00;;;18.40;36.40;;;;;;5001002;28;46562;-67
2023/08/09 10:13:04;;;;;;;6.00;2.50;;;18.50;36.10;;;;;;5001600;28;46594;-67
2023/08/09 10:16:10;;;;;;;4.00;2.20;;;18.60;36.00;;;;;;4999803;28;46772;-68
2023/08/09 10:18:46;;;;;;;6.67;2.03;;;18.50;36.20;;;;;;4998053;28;46806;-67
2023/08/09 10:21:16;;;;;;;7.23;2.00;;;18.50;36.10;;;;;;5002038;28;47296;-67
2023/08/09 10:23:55;;;;;;;4.80;2.60;;;18.80;35.50;;;;;;5002595;28;46451;-68
2023/08/09 10:26:29;;;;;;;6.47;2.20;;;19.00;35.00;;;;;;5006461;28;46467;-67
2023/08/09 10:29:02;;;;;;;10.20;2.00;;;19.20;33.90;;;;;;5006536;28;46512;-67
2023/08/09 10:31:48;;;;;;;3.97;2.20;;;19.70;33.80;;;;;;5001584;28;47424;-67
2023/08/09 10:34:16;;;;;;;6.37;2.53;;;20.00;32.60;;;;;;5001143;28;46915;-67
2023/08/09 10:36:43;;;;;;;4.57;1.97;;;20.40;31.70;;;;;;5002671;28;46568;-67
2023/08/09 10:39:16;;;;;;;8.60;2.40;;;20.80;30.80;;;;;;5004987;28;46391;-67
2023/08/09 10:41:58;;;;;;;5.60;2.57;;;21.20;29.70;;;;;;5002215;28;47087;-67
2023/08/09 10:44:44;;;;;;;5.27;2.13;;;21.60;29.00;;;;;;5002560;28;45846;-66
2023/08/09 10:47:22;;;;;;;4.80;2.10;;;22.10;28.10;;;;;;5002333;28;46564;-67
2023/08/09 10:49:48;;;;;;;3.97;2.07;;;22.60;27.50;;;;;;5003805;28;46797;-66
2023/08/09 10:52:17;;;;;;;3.67;1.83;;;22.80;26.80;;;;;;5004045;28;46699;-68
2023/08/09 10:54:43;;;;;;;6.50;2.10;;;22.90;26.50;;;;;;5001080;28;46580;-68
2023/08/09 10:57:10;;;;;;;6.13;1.97;;;23.10;25.70;;;;;;5003686;28;46819;-67
2023/08/09 10:59:39;;;;;;;4.70;2.10;;;22.80;24.40;;;;;;5002702;28;46818;-67
2023/08/09 11:02:08;;;;;;;5.43;2.10;;;22.70;24.60;;;;;;5003084;28;47321;-68
2023/08/09 11:04:34;;;;;;;4.93;2.13;;;22.70;24.30;;;;;;5002297;28;46439;-67
2023/08/09 11:07:01;;;;;;;3.70;1.73;;;22.50;24.20;;;;;;5002559;28;45851;-66
2023/08/09 11:09:28;;;;;;;4.10;2.10;;;22.60;24.20;;;;;;5003387;28;46753;-67
2023/08/09 11:11:54;;;;;;;5.83;1.93;;;22.70;24.40;;;;;;5004866;28;47284;-67
2023/08/09 11:14:22;;;;;;;5.83;1.90;;;23.00;23.30;;;;;;5004649;28;46487;-66
2023/08/09 11:16:48;;;;;;;4.53;2.20;;;23.20;22.50;;;;;;5003868;28;46527;-67
2023/08/09 11:19:18;;;;;;;5.53;2.20;;;23.40;21.90;;;;;;5005223;28;46476;-67
2023/08/09 11:21:46;;;;;;;3.73;2.00;;;23.10;21.00;;;;;;5007955;28;47151;-66
2023/08/09 11:24:13;;;;;;;4.80;1.90;;;23.30;20.90;;;;;;5000300;28;46562;-67
2023/08/09 11:26:51;;;;;;;5.97;2.00;;;23.60;20.40;;;;;;5003157;28;46398;-67
2023/08/09 11:29:18;;;;;;;7.70;2.23;;;23.60;19.70;;;;;;5004902;28;46518;-66
2023/08/09 11:31:45;;;;;;;4.63;2.37;;;23.40;20.30;;;;;;5004886;28;46679;-68
2023/08/09 11:34:16;;;;;;;7.90;2.30;;;23.30;19.70;;;;;;5005308;28;46506;-68
2023/08/09 11:36:43;;;;;;;4.13;2.17;;;22.70;19.90;;;;;;5004153;28;46490;-67
2023/08/09 11:39:10;;;;;;;7.07;2.57;;;22.40;20.00;;;;;;5004787;28;46813;-67
2023/08/09 11:41:46;;;;;;;6.40;2.63;;;22.20;20.60;;;;;;5003111;28;46877;-67
2023/08/09 11:44:14;;;;;;;5.40;2.03;;;22.20;20.60;;;;;;5003971;28;46616;-67
2023/08/09 11:46:45;;;;;;;4.43;2.43;;;22.40;20.50;;;;;;5002763;28;46474;-67
2023/08/09 11:49:11;;;;;;;4.23;2.10;;;22.40;20.20;;;;;;5004272;28;46800;-68
2023/08/09 11:51:37;;;;;;;4.27;2.10;;;22.50;20.10;;;;;;5004637;28;46990;-67
2023/08/09 11:54:07;;;;;;;5.43;2.40;;;22.70;20.10;;;;;;5005065;28;46462;-67
2023/08/09 11:56:36;;;;;;;6.10;2.13;;;22.80;19.40;;;;;;4999771;28;46606;-66
2023/08/09 11:59:03;;;;;;;3.37;1.90;;;22.60;19.10;;;;;;5003035;28;47503;-65
2023/08/09 12:01:33;;;;;;;5.53;2.00;;;22.50;19.80;;;;;;5002349;28;46320;-66
2023/08/09 12:04:04;;;;;;;8.17;2.40;;;22.90;19.60;;;;;;5006208;28;46392;-65
2023/08/09 12:06:37;;;;;;;4.00;1.80;;;23.20;18.80;;;;;;5001728;28;46522;-66
2023/08/09 12:09:30;;;;;;;4.57;1.90;;;23.50;18.10;;;;;;5002981;28;46544;-69
2023/08/09 12:12:01;;;;;;;6.00;2.20;;;23.50;17.90;;;;;;5004273;28;46477;-68
2023/08/09 12:14:27;;;;;;;6.63;2.60;;;23.40;17.30;;;;;;5002300;28;46927;-67
2023/08/09 12:16:53;;;;;;;4.80;2.00;;;23.30;18.10;;;;;;5009741;28;46407;-67
2023/08/09 12:19:18;;;;;;;5.00;2.03;;;23.20;18.10;;;;;;5003846;28;46643;-67
2023/08/09 12:21:44;;;;;;;3.70;2.20;;;23.10;18.20;;;;;;5004922;28;46031;-68
2023/08/09 12:24:10;;;;;;;4.70;2.30;;;22.90;18.00;;;;;;5009431;28;45896;-68
2023/08/09 12:26:36;;;;;;;9.37;2.50;;;23.10;17.90;;;;;;5006075;28;45957;-68
2023/08/09 12:29:02;;;;;;;4.00;1.90;;;23.20;17.70;;;;;;5009324;28;46523;-67
2023/08/09 12:31:28;;;;;;;3.10;1.63;;;23.70;16.90;;;;;;5012920;28;46411;-66
2023/08/09 12:33:54;;;;;;;8.13;2.60;;;23.90;16.00;;;;;;5012360;28;46640;-67
2023/08/09 12:36:20;;;;;;;5.40;2.10;;;23.80;15.90;;;;;;5004874;28;45961;-67
2023/08/09 12:38:45;;;;;;;4.50;1.90;;;24.10;15.30;;;;;;5006151;28;46510;-67
2023/08/09 12:41:11;;;;;;;4.87;2.10;;;24.20;14.30;;;;;;5008396;28;46471;-67
2023/08/09 12:43:36;;;;;;;4.37;2.10;;;24.20;14.80;;;;;;5013089;28;46869;-67
2023/08/09 12:46:02;;;;;;;4.63;2.10;;;24.00;14.20;;;;;;5000010;28;46423;-67